sensor_id;sensor_type;location;lat;lon;timestamp;temperature;humidity
16814;DHT22;8524;57.650;11.926;2023-02-13T00:01:32;5.40;99.90
16814;DHT22;8524;57.650;11.926;2023-02-13T00:04:01;5.40;99.90
16814;DHT22;8524;57.650;11.926;2023-02-13T00:06:29;5.40;99.90
16814;DHT22;8524;57.650;11.926;2023-02-13T00:08:56;5.40;99.90
16814;DHT22;8524;57.650;11.926;2023-02-13T00:11:23;5.40;99.90
16814;DHT22;8524;57.650;11.926;2023-02-13T00:13:50;5.30;99.90
16814;DHT22;8524;57.650;11.926;2023-02-13T00:16:17;5.40;99.90
16814;DHT22;8524;57.650;11.926;2023-02-13T00:18:44;5.50;99.90
16814;DHT22;8524;57.650;11.926;2023-02-13T00:21:12;5.60;99.90
16814;DHT22;8524;57.650;11.926;2023-02-13T00:23:40;5.60;99.90
16814;DHT22;8524;57.650;11.926;2023-02-13T00:26:09;5.60;99.90
16814;DHT22;8524;57.650;11.926;2023-02-13T00:28:37;5.70;99.90
16814;DHT22;8524;57.650;11.926;2023-02-13T00:31:06;5.70;99.90
16814;DHT22;8524;57.650;11.926;2023-02-13T00:33:34;5.80;99.90
16814;DHT22;8524;57.650;11.926;2023-02-13T00:36:05;5.70;99.90
16814;DHT22;8524;57.650;11.926;2023-02-13T00:38:34;5.80;99.90
16814;DHT22;8524;57.650;11.926;2023-02-13T00:41:02;5.70;99.90
16814;DHT22;8524;57.650;11.926;2023-02-13T00:43:30;5.70;99.90
16814;DHT22;8524;57.650;11.926;2023-02-13T00:45:58;5.80;99.90
16814;DHT22;8524;57.650;11.926;2023-02-13T00:48:25;5.80;99.90
16814;DHT22;8524;57.650;11.926;2023-02-13T00:50:52;5.70;99.90
16814;DHT22;8524;57.650;11.926;2023-02-13T00:53:19;5.70;99.90
16814;DHT22;8524;57.650;11.926;2023-02-13T00:55:48;5.70;99.90
16814;DHT22;8524;57.650;11.926;2023-02-13T00:58:16;5.80;99.90
16814;DHT22;8524;57.650;11.926;2023-02-13T01:00:43;5.80;99.90
16814;DHT22;8524;57.650;11.926;2023-02-13T01:03:12;5.80;99.90
16814;DHT22;8524;57.650;11.926;2023-02-13T01:05:39;5.80;99.90
16814;DHT22;8524;57.650;11.926;2023-02-13T01:08:06;5.80;99.90
16814;DHT22;8524;57.650;11.926;2023-02-13T01:10:33;5.80;99.90
16814;DHT22;8524;57.650;11.926;2023-02-13T01:13:02;5.70;99.90
16814;DHT22;8524;57.650;11.926;2023-02-13T01:15:28;5.70;99.90
16814;DHT22;8524;57.650;11.926;2023-02-13T01:17:57;5.70;99.90
16814;DHT22;8524;57.650;11.926;2023-02-13T01:20:26;5.80;99.90
16814;DHT22;8524;57.650;11.926;2023-02-13T01:22:54;5.70;99.90
16814;DHT22;8524;57.650;11.926;2023-02-13T01:25:21;5.70;99.90
16814;DHT22;8524;57.650;11.926;2023-02-13T01:27:49;5.70;99.90
16814;DHT22;8524;57.650;11.926;2023-02-13T01:30:19;5.70;99.90
16814;DHT22;8524;57.650;11.926;2023-02-13T01:32:46;5.70;99.90
16814;DHT22;8524;57.650;11.926;2023-02-13T01:35:14;5.60;99.90
16814;DHT22;8524;57.650;11.926;2023-02-13T01:37:41;5.60;99.90
16814;DHT22;8524;57.650;11.926;2023-02-13T01:40:11;5.70;99.90
16814;DHT22;8524;57.650;11.926;2023-02-13T01:42:38;5.70;99.90
16814;DHT22;8524;57.650;11.926;2023-02-13T01:45:25;5.70;99.90
16814;DHT22;8524;57.650;11.926;2023-02-13T01:47:54;5.70;99.90
16814;DHT22;8524;57.650;11.926;2023-02-13T01:50:24;5.70;99.90
16814;DHT22;8524;57.650;11.926;2023-02-13T01:52:58;5.70;99.90
16814;DHT22;8524;57.650;11.926;2023-02-13T01:55:27;5.70;99.90
16814;DHT22;8524;57.650;11.926;2023-02-13T01:57:59;5.70;99.90
16814;DHT22;8524;57.650;11.926;2023-02-13T02:00:30;5.70;99.90
16814;DHT22;8524;57.650;11.926;2023-02-13T02:03:01;5.70;99.90
16814;DHT22;8524;57.650;11.926;2023-02-13T02:05:31;5.70;99.90
16814;DHT22;8524;57.650;11.926;2023-02-13T02:08:01;5.70;99.90
16814;DHT22;8524;57.650;11.926;2023-02-13T02:10:31;5.80;99.90
16814;DHT22;8524;57.650;11.926;2023-02-13T02:13:04;5.80;99.90
16814;DHT22;8524;57.650;11.926;2023-02-13T02:15:33;5.70;99.90
16814;DHT22;8524;57.650;11.926;2023-02-13T02:18:00;5.80;99.90
16814;DHT22;8524;57.650;11.926;2023-02-13T02:20:44;5.70;99.90
16814;DHT22;8524;57.650;11.926;2023-02-13T02:23:46;5.70;99.90
16814;DHT22;8524;57.650;11.926;2023-02-13T02:26:32;5.70;99.90
16814;DHT22;8524;57.650;11.926;2023-02-13T02:29:28;5.70;99.90
16814;DHT22;8524;57.650;11.926;2023-02-13T02:32:08;5.70;99.90
16814;DHT22;8524;57.650;11.926;2023-02-13T02:34:46;5.60;99.90
16814;DHT22;8524;57.650;11.926;2023-02-13T02:37:28;5.60;99.90
16814;DHT22;8524;57.650;11.926;2023-02-13T02:40:06;5.60;99.90
16814;DHT22;8524;57.650;11.926;2023-02-13T02:42:45;5.50;99.90
16814;DHT22;8524;57.650;11.926;2023-02-13T02:45:23;5.50;99.90
16814;DHT22;8524;57.650;11.926;2023-02-13T02:47:57;5.50;99.90
16814;DHT22;8524;57.650;11.926;2023-02-13T02:50:48;5.40;99.90
16814;DHT22;8524;57.650;11.926;2023-02-13T02:53:27;5.40;99.90
16814;DHT22;8524;57.650;11.926;2023-02-13T02:56:01;5.30;99.90
16814;DHT22;8524;57.650;11.926;2023-02-13T02:58:36;5.40;99.90
16814;DHT22;8524;57.650;11.926;2023-02-13T03:01:24;5.40;99.90
16814;DHT22;8524;57.650;11.926;2023-02-13T03:04:17;5.40;99.90
16814;DHT22;8524;57.650;11.926;2023-02-13T03:07:05;5.40;99.90
16814;DHT22;8524;57.650;11.926;2023-02-13T03:09:37;5.50;99.90
16814;DHT22;8524;57.650;11.926;2023-02-13T03:12:28;5.40;99.90
16814;DHT22;8524;57.650;11.926;2023-02-13T03:15:16;5.40;99.90
16814;DHT22;8524;57.650;11.926;2023-02-13T03:17:43;5.40;99.90
16814;DHT22;8524;57.650;11.926;2023-02-13T03:20:37;5.40;99.90
16814;DHT22;8524;57.650;11.926;2023-02-13T03:23:34;5.40;99.90
16814;DHT22;8524;57.650;11.926;2023-02-13T03:26:21;5.50;99.90
16814;DHT22;8524;57.650;11.926;2023-02-13T03:29:03;5.50;99.90
16814;DHT22;8524;57.650;11.926;2023-02-13T03:31:53;5.60;99.90
16814;DHT22;8524;57.650;11.926;2023-02-13T03:34:28;5.60;99.90
16814;DHT22;8524;57.650;11.926;2023-02-13T03:37:21;5.60;99.90
16814;DHT22;8524;57.650;11.926;2023-02-13T03:40:14;5.70;99.90
16814;DHT22;8524;57.650;11.926;2023-02-13T03:42:46;5.70;99.90
16814;DHT22;8524;57.650;11.926;2023-02-13T03:45:18;5.80;99.90
16814;DHT22;8524;57.650;11.926;2023-02-13T03:48:06;5.80;99.90
16814;DHT22;8524;57.650;11.926;2023-02-13T03:50:56;5.80;99.90
16814;DHT22;8524;57.650;11.926;2023-02-13T03:53:25;5.90;99.90
16814;DHT22;8524;57.650;11.926;2023-02-13T03:55:55;5.90;99.90
16814;DHT22;8524;57.650;11.926;2023-02-13T03:58:42;5.90;99.90
16814;DHT22;8524;57.650;11.926;2023-02-13T04:01:31;5.80;99.90
16814;DHT22;8524;57.650;11.926;2023-02-13T04:04:04;5.80;99.90
16814;DHT22;8524;57.650;11.926;2023-02-13T04:06:39;5.80;99.90
16814;DHT22;8524;57.650;11.926;2023-02-13T04:09:10;5.80;99.90
16814;DHT22;8524;57.650;11.926;2023-02-13T04:11:41;5.70;99.90
16814;DHT22;8524;57.650;11.926;2023-02-13T04:14:17;5.90;99.90
16814;DHT22;8524;57.650;11.926;2023-02-13T04:16:48;5.80;99.90
16814;DHT22;8524;57.650;11.926;2023-02-13T04:19:16;5.70;99.90
16814;DHT22;8524;57.650;11.926;2023-02-13T04:21:43;5.70;99.90
16814;DHT22;8524;57.650;11.926;2023-02-13T04:24:12;5.70;99.90
16814;DHT22;8524;57.650;11.926;2023-02-13T04:26:44;5.60;99.90
16814;DHT22;8524;57.650;11.926;2023-02-13T04:29:11;5.70;99.90
16814;DHT22;8524;57.650;11.926;2023-02-13T04:31:38;5.60;99.90
16814;DHT22;8524;57.650;11.926;2023-02-13T04:34:05;5.60;99.90
16814;DHT22;8524;57.650;11.926;2023-02-13T04:36:32;5.50;99.90
16814;DHT22;8524;57.650;11.926;2023-02-13T04:38:59;5.40;99.90
16814;DHT22;8524;57.650;11.926;2023-02-13T04:41:28;5.40;99.90
16814;DHT22;8524;57.650;11.926;2023-02-13T04:43:55;5.40;99.90
16814;DHT22;8524;57.650;11.926;2023-02-13T04:46:22;5.30;99.90
16814;DHT22;8524;57.650;11.926;2023-02-13T04:48:49;5.30;99.90
16814;DHT22;8524;57.650;11.926;2023-02-13T04:51:16;5.20;99.90
16814;DHT22;8524;57.650;11.926;2023-02-13T04:53:43;5.10;99.90
16814;DHT22;8524;57.650;11.926;2023-02-13T04:56:10;5.20;99.90
16814;DHT22;8524;57.650;11.926;2023-02-13T04:58:38;5.20;99.90
16814;DHT22;8524;57.650;11.926;2023-02-13T05:01:11;5.30;99.90
16814;DHT22;8524;57.650;11.926;2023-02-13T05:03:38;5.30;99.90
16814;DHT22;8524;57.650;11.926;2023-02-13T05:06:06;5.30;99.90
16814;DHT22;8524;57.650;11.926;2023-02-13T05:08:33;5.20;99.90
16814;DHT22;8524;57.650;11.926;2023-02-13T05:11:00;5.20;99.90
16814;DHT22;8524;57.650;11.926;2023-02-13T05:13:27;5.20;99.90
16814;DHT22;8524;57.650;11.926;2023-02-13T05:15:55;5.20;99.90
16814;DHT22;8524;57.650;11.926;2023-02-13T05:18:22;5.20;99.90
16814;DHT22;8524;57.650;11.926;2023-02-13T05:20:49;5.20;99.90
16814;DHT22;8524;57.650;11.926;2023-02-13T05:23:30;5.20;99.90
16814;DHT22;8524;57.650;11.926;2023-02-13T05:25:57;5.10;99.90
16814;DHT22;8524;57.650;11.926;2023-02-13T05:28:24;5.20;99.90
16814;DHT22;8524;57.650;11.926;2023-02-13T05:31:11;5.20;99.90
16814;DHT22;8524;57.650;11.926;2023-02-13T05:33:38;5.30;99.90
16814;DHT22;8524;57.650;11.926;2023-02-13T05:36:06;5.20;99.90
16814;DHT22;8524;57.650;11.926;2023-02-13T05:38:33;5.30;99.90
16814;DHT22;8524;57.650;11.926;2023-02-13T05:41:01;5.30;99.90
16814;DHT22;8524;57.650;11.926;2023-02-13T05:43:28;5.40;99.90
16814;DHT22;8524;57.650;11.926;2023-02-13T05:46:02;5.40;99.90
16814;DHT22;8524;57.650;11.926;2023-02-13T05:48:31;5.40;99.90
16814;DHT22;8524;57.650;11.926;2023-02-13T05:50:59;5.40;99.90
16814;DHT22;8524;57.650;11.926;2023-02-13T05:53:26;5.40;99.90
16814;DHT22;8524;57.650;11.926;2023-02-13T05:55:54;5.40;99.90
16814;DHT22;8524;57.650;11.926;2023-02-13T05:58:21;5.40;99.90
16814;DHT22;8524;57.650;11.926;2023-02-13T06:00:48;5.40;99.90
16814;DHT22;8524;57.650;11.926;2023-02-13T06:03:15;5.40;99.90
16814;DHT22;8524;57.650;11.926;2023-02-13T06:05:43;5.30;99.90
16814;DHT22;8524;57.650;11.926;2023-02-13T06:08:10;5.20;99.90
16814;DHT22;8524;57.650;11.926;2023-02-13T06:10:38;5.10;99.90
16814;DHT22;8524;57.650;11.926;2023-02-13T06:13:05;5.10;99.90
16814;DHT22;8524;57.650;11.926;2023-02-13T06:15:32;5.00;99.90
16814;DHT22;8524;57.650;11.926;2023-02-13T06:17:59;4.90;99.90
16814;DHT22;8524;57.650;11.926;2023-02-13T06:20:26;4.90;99.90
16814;DHT22;8524;57.650;11.926;2023-02-13T06:22:54;4.80;99.90
16814;DHT22;8524;57.650;11.926;2023-02-13T06:25:21;4.80;99.90
16814;DHT22;8524;57.650;11.926;2023-02-13T06:27:49;4.70;99.90
16814;DHT22;8524;57.650;11.926;2023-02-13T06:30:17;4.70;99.90
16814;DHT22;8524;57.650;11.926;2023-02-13T06:32:45;4.60;99.90
16814;DHT22;8524;57.650;11.926;2023-02-13T06:35:13;4.40;99.90
16814;DHT22;8524;57.650;11.926;2023-02-13T06:37:40;4.30;99.90
16814;DHT22;8524;57.650;11.926;2023-02-13T06:40:12;4.20;99.90
16814;DHT22;8524;57.650;11.926;2023-02-13T06:42:40;4.30;99.90
16814;DHT22;8524;57.650;11.926;2023-02-13T06:45:08;4.30;99.90
16814;DHT22;8524;57.650;11.926;2023-02-13T06:47:35;4.20;99.90
16814;DHT22;8524;57.650;11.926;2023-02-13T06:50:06;4.20;99.90
16814;DHT22;8524;57.650;11.926;2023-02-13T06:52:34;4.10;99.90
16814;DHT22;8524;57.650;11.926;2023-02-13T06:55:01;4.10;99.90
16814;DHT22;8524;57.650;11.926;2023-02-13T06:57:31;4.10;99.90
16814;DHT22;8524;57.650;11.926;2023-02-13T06:59:58;4.10;99.90
16814;DHT22;8524;57.650;11.926;2023-02-13T07:02:29;4.20;99.90
16814;DHT22;8524;57.650;11.926;2023-02-13T07:04:56;4.40;99.90
16814;DHT22;8524;57.650;11.926;2023-02-13T07:07:23;4.50;99.90
16814;DHT22;8524;57.650;11.926;2023-02-13T07:09:50;4.60;99.90
16814;DHT22;8524;57.650;11.926;2023-02-13T07:12:17;4.60;99.90
16814;DHT22;8524;57.650;11.926;2023-02-13T07:14:46;4.70;99.90
16814;DHT22;8524;57.650;11.926;2023-02-13T07:17:13;4.70;99.90
16814;DHT22;8524;57.650;11.926;2023-02-13T07:19:40;4.70;99.90
16814;DHT22;8524;57.650;11.926;2023-02-13T07:22:07;4.70;99.90
16814;DHT22;8524;57.650;11.926;2023-02-13T07:24:34;4.80;99.90
16814;DHT22;8524;57.650;11.926;2023-02-13T07:27:03;4.80;99.90
16814;DHT22;8524;57.650;11.926;2023-02-13T07:29:30;4.70;99.90
16814;DHT22;8524;57.650;11.926;2023-02-13T07:31:58;4.80;99.90
16814;DHT22;8524;57.650;11.926;2023-02-13T07:34:25;4.90;99.90
16814;DHT22;8524;57.650;11.926;2023-02-13T07:36:52;5.00;99.90
16814;DHT22;8524;57.650;11.926;2023-02-13T07:39:19;5.10;99.90
16814;DHT22;8524;57.650;11.926;2023-02-13T07:41:46;5.10;99.90
16814;DHT22;8524;57.650;11.926;2023-02-13T07:44:13;5.10;99.90
16814;DHT22;8524;57.650;11.926;2023-02-13T07:46:40;5.20;99.90
16814;DHT22;8524;57.650;11.926;2023-02-13T07:49:09;5.20;99.90
16814;DHT22;8524;57.650;11.926;2023-02-13T07:51:36;5.30;99.90
16814;DHT22;8524;57.650;11.926;2023-02-13T07:54:03;5.40;99.90
16814;DHT22;8524;57.650;11.926;2023-02-13T07:56:30;5.40;99.90
16814;DHT22;8524;57.650;11.926;2023-02-13T07:58:57;5.40;99.90
16814;DHT22;8524;57.650;11.926;2023-02-13T08:01:24;5.50;99.90
16814;DHT22;8524;57.650;11.926;2023-02-13T08:03:51;5.50;99.90
16814;DHT22;8524;57.650;11.926;2023-02-13T08:06:20;5.60;99.90
16814;DHT22;8524;57.650;11.926;2023-02-13T08:08:47;5.70;99.90
16814;DHT22;8524;57.650;11.926;2023-02-13T08:11:34;5.80;99.90
16814;DHT22;8524;57.650;11.926;2023-02-13T08:14:18;5.80;99.90
16814;DHT22;8524;57.650;11.926;2023-02-13T08:16:45;5.90;99.90
16814;DHT22;8524;57.650;11.926;2023-02-13T08:19:12;5.90;99.90
16814;DHT22;8524;57.650;11.926;2023-02-13T08:21:41;6.00;99.90
16814;DHT22;8524;57.650;11.926;2023-02-13T08:24:08;6.00;99.90
16814;DHT22;8524;57.650;11.926;2023-02-13T08:26:35;6.00;99.90
16814;DHT22;8524;57.650;11.926;2023-02-13T08:29:03;6.00;99.90
16814;DHT22;8524;57.650;11.926;2023-02-13T08:31:30;6.10;99.90
16814;DHT22;8524;57.650;11.926;2023-02-13T08:33:57;6.10;99.90
16814;DHT22;8524;57.650;11.926;2023-02-13T08:36:24;6.20;99.90
16814;DHT22;8524;57.650;11.926;2023-02-13T08:38:52;6.30;99.90
16814;DHT22;8524;57.650;11.926;2023-02-13T08:41:19;6.20;99.90
16814;DHT22;8524;57.650;11.926;2023-02-13T08:43:48;6.30;99.90
16814;DHT22;8524;57.650;11.926;2023-02-13T08:46:15;6.50;99.90
16814;DHT22;8524;57.650;11.926;2023-02-13T08:48:42;6.60;99.90
16814;DHT22;8524;57.650;11.926;2023-02-13T08:51:11;6.70;99.90
16814;DHT22;8524;57.650;11.926;2023-02-13T08:53:39;6.70;99.90
16814;DHT22;8524;57.650;11.926;2023-02-13T08:56:08;6.70;99.90
16814;DHT22;8524;57.650;11.926;2023-02-13T08:58:36;6.80;99.90
16814;DHT22;8524;57.650;11.926;2023-02-13T09:01:07;6.90;99.90
16814;DHT22;8524;57.650;11.926;2023-02-13T09:03:34;7.00;99.90
16814;DHT22;8524;57.650;11.926;2023-02-13T09:06:02;7.00;99.90
16814;DHT22;8524;57.650;11.926;2023-02-13T09:08:29;7.00;99.90
16814;DHT22;8524;57.650;11.926;2023-02-13T09:10:58;7.10;99.90
16814;DHT22;8524;57.650;11.926;2023-02-13T09:13:27;7.20;99.90
16814;DHT22;8524;57.650;11.926;2023-02-13T09:15:57;7.20;99.90
16814;DHT22;8524;57.650;11.926;2023-02-13T09:18:24;7.30;99.90
16814;DHT22;8524;57.650;11.926;2023-02-13T09:20:57;7.30;99.90
16814;DHT22;8524;57.650;11.926;2023-02-13T09:23:25;7.40;99.90
16814;DHT22;8524;57.650;11.926;2023-02-13T09:25:52;7.50;99.90
16814;DHT22;8524;57.650;11.926;2023-02-13T09:28:19;7.50;99.90
16814;DHT22;8524;57.650;11.926;2023-02-13T09:30:47;7.60;99.90
16814;DHT22;8524;57.650;11.926;2023-02-13T09:33:15;7.50;99.90
16814;DHT22;8524;57.650;11.926;2023-02-13T09:35:42;7.60;99.90
16814;DHT22;8524;57.650;11.926;2023-02-13T09:38:10;7.70;99.90
16814;DHT22;8524;57.650;11.926;2023-02-13T09:40:42;7.60;99.90
16814;DHT22;8524;57.650;11.926;2023-02-13T09:43:14;7.70;99.90
16814;DHT22;8524;57.650;11.926;2023-02-13T09:45:44;7.70;99.90
16814;DHT22;8524;57.650;11.926;2023-02-13T09:48:21;7.80;99.90
16814;DHT22;8524;57.650;11.926;2023-02-13T09:50:50;7.80;99.90
16814;DHT22;8524;57.650;11.926;2023-02-13T09:53:21;7.90;99.90
16814;DHT22;8524;57.650;11.926;2023-02-13T09:55:57;7.90;99.90
16814;DHT22;8524;57.650;11.926;2023-02-13T09:58:48;7.90;99.90
16814;DHT22;8524;57.650;11.926;2023-02-13T10:01:24;7.90;99.90
16814;DHT22;8524;57.650;11.926;2023-02-13T10:04:23;8.00;99.90
16814;DHT22;8524;57.650;11.926;2023-02-13T10:07:19;8.00;99.90
16814;DHT22;8524;57.650;11.926;2023-02-13T10:09:53;8.10;99.90
16814;DHT22;8524;57.650;11.926;2023-02-13T10:12:41;8.10;99.90
16814;DHT22;8524;57.650;11.926;2023-02-13T10:15:19;8.20;99.90
16814;DHT22;8524;57.650;11.926;2023-02-13T10:17:54;8.20;99.90
16814;DHT22;8524;57.650;11.926;2023-02-13T10:20:29;8.30;99.90
16814;DHT22;8524;57.650;11.926;2023-02-13T10:22:59;8.30;99.90
16814;DHT22;8524;57.650;11.926;2023-02-13T10:25:41;8.30;99.90
16814;DHT22;8524;57.650;11.926;2023-02-13T10:28:13;8.40;99.90
16814;DHT22;8524;57.650;11.926;2023-02-13T10:30:48;8.40;99.90
16814;DHT22;8524;57.650;11.926;2023-02-13T10:33:18;8.40;99.90
16814;DHT22;8524;57.650;11.926;2023-02-13T10:35:52;8.50;99.90
16814;DHT22;8524;57.650;11.926;2023-02-13T10:38:22;8.50;99.90
16814;DHT22;8524;57.650;11.926;2023-02-13T10:41:19;8.50;99.90
16814;DHT22;8524;57.650;11.926;2023-02-13T10:44:04;8.50;99.90
16814;DHT22;8524;57.650;11.926;2023-02-13T10:46:40;8.60;99.90
16814;DHT22;8524;57.650;11.926;2023-02-13T10:49:34;8.60;99.90
16814;DHT22;8524;57.650;11.926;2023-02-13T10:52:16;8.70;99.90
16814;DHT22;8524;57.650;11.926;2023-02-13T10:55:00;8.70;99.90
16814;DHT22;8524;57.650;11.926;2023-02-13T10:57:35;8.80;99.90
16814;DHT22;8524;57.650;11.926;2023-02-13T11:00:10;8.80;99.90
16814;DHT22;8524;57.650;11.926;2023-02-13T11:02:40;8.90;99.90
16814;DHT22;8524;57.650;11.926;2023-02-13T11:05:14;8.90;99.90
16814;DHT22;8524;57.650;11.926;2023-02-13T11:07:45;8.90;99.90
16814;DHT22;8524;57.650;11.926;2023-02-13T11:10:17;9.00;99.90
16814;DHT22;8524;57.650;11.926;2023-02-13T11:12:44;8.90;99.90
16814;DHT22;8524;57.650;11.926;2023-02-13T11:15:24;9.00;99.90
16814;DHT22;8524;57.650;11.926;2023-02-13T11:17:52;8.90;99.90
16814;DHT22;8524;57.650;11.926;2023-02-13T11:20:28;8.90;99.90
16814;DHT22;8524;57.650;11.926;2023-02-13T11:25:56;9.00;99.90
16814;DHT22;8524;57.650;11.926;2023-02-13T11:28:25;9.10;99.90
16814;DHT22;8524;57.650;11.926;2023-02-13T11:31:09;9.00;99.90
16814;DHT22;8524;57.650;11.926;2023-02-13T11:33:36;9.10;99.90
16814;DHT22;8524;57.650;11.926;2023-02-13T11:36:05;9.00;99.90
16814;DHT22;8524;57.650;11.926;2023-02-13T11:38:36;9.10;99.90
16814;DHT22;8524;57.650;11.926;2023-02-13T11:41:07;9.20;99.90
16814;DHT22;8524;57.650;11.926;2023-02-13T11:43:36;9.20;99.90
16814;DHT22;8524;57.650;11.926;2023-02-13T11:46:06;9.10;99.90
16814;DHT22;8524;57.650;11.926;2023-02-13T11:48:34;9.10;99.90
16814;DHT22;8524;57.650;11.926;2023-02-13T11:51:02;9.10;99.90
16814;DHT22;8524;57.650;11.926;2023-02-13T11:53:34;9.10;99.90
16814;DHT22;8524;57.650;11.926;2023-02-13T11:56:07;9.10;99.90
16814;DHT22;8524;57.650;11.926;2023-02-13T11:58:35;9.20;99.90
16814;DHT22;8524;57.650;11.926;2023-02-13T12:01:14;9.10;99.90
16814;DHT22;8524;57.650;11.926;2023-02-13T12:04:00;9.20;99.90
16814;DHT22;8524;57.650;11.926;2023-02-13T12:06:28;9.10;99.90
16814;DHT22;8524;57.650;11.926;2023-02-13T12:08:56;9.10;99.90
16814;DHT22;8524;57.650;11.926;2023-02-13T12:11:33;9.10;99.90
16814;DHT22;8524;57.650;11.926;2023-02-13T12:14:02;9.10;99.90
16814;DHT22;8524;57.650;11.926;2023-02-13T12:16:32;9.00;99.90
16814;DHT22;8524;57.650;11.926;2023-02-13T12:19:05;9.10;99.90
16814;DHT22;8524;57.650;11.926;2023-02-13T12:21:43;9.00;99.90
16814;DHT22;8524;57.650;11.926;2023-02-13T12:24:24;8.90;99.90
16814;DHT22;8524;57.650;11.926;2023-02-13T12:26:58;8.90;99.90
16814;DHT22;8524;57.650;11.926;2023-02-13T12:30:02;8.80;99.90
16814;DHT22;8524;57.650;11.926;2023-02-13T12:32:41;8.80;99.90
16814;DHT22;8524;57.650;11.926;2023-02-13T12:35:27;8.90;99.90
16814;DHT22;8524;57.650;11.926;2023-02-13T12:38:01;9.00;99.90
16814;DHT22;8524;57.650;11.926;2023-02-13T12:40:58;9.00;99.90
16814;DHT22;8524;57.650;11.926;2023-02-13T12:46:55;9.10;99.90
16814;DHT22;8524;57.650;11.926;2023-02-13T12:49:39;9.10;99.90
16814;DHT22;8524;57.650;11.926;2023-02-13T12:52:28;9.10;99.90
16814;DHT22;8524;57.650;11.926;2023-02-13T12:55:12;9.10;99.90
16814;DHT22;8524;57.650;11.926;2023-02-13T12:57:52;9.20;99.90
16814;DHT22;8524;57.650;11.926;2023-02-13T13:00:30;9.20;99.90
16814;DHT22;8524;57.650;11.926;2023-02-13T13:03:27;9.20;99.90
16814;DHT22;8524;57.650;11.926;2023-02-13T13:06:07;9.00;99.90
16814;DHT22;8524;57.650;11.926;2023-02-13T13:08:58;9.00;99.90
16814;DHT22;8524;57.650;11.926;2023-02-13T13:11:44;9.10;99.90
16814;DHT22;8524;57.650;11.926;2023-02-13T13:14:20;9.10;99.90
16814;DHT22;8524;57.650;11.926;2023-02-13T13:16:55;9.10;99.90
16814;DHT22;8524;57.650;11.926;2023-02-13T13:19:34;9.10;99.90
16814;DHT22;8524;57.650;11.926;2023-02-13T13:22:05;9.00;99.90
16814;DHT22;8524;57.650;11.926;2023-02-13T13:24:49;9.00;99.90
16814;DHT22;8524;57.650;11.926;2023-02-13T13:27:20;9.00;99.90
16814;DHT22;8524;57.650;11.926;2023-02-13T13:29:53;9.00;99.90
16814;DHT22;8524;57.650;11.926;2023-02-13T13:32:22;9.00;99.90
16814;DHT22;8524;57.650;11.926;2023-02-13T13:34:52;8.90;99.90
16814;DHT22;8524;57.650;11.926;2023-02-13T13:37:25;9.00;99.90
16814;DHT22;8524;57.650;11.926;2023-02-13T13:39:59;8.90;99.90
16814;DHT22;8524;57.650;11.926;2023-02-13T13:42:34;8.90;99.90
16814;DHT22;8524;57.650;11.926;2023-02-13T13:45:17;8.80;99.90
16814;DHT22;8524;57.650;11.926;2023-02-13T13:48:02;8.80;99.90
16814;DHT22;8524;57.650;11.926;2023-02-13T13:50:35;8.90;99.90
16814;DHT22;8524;57.650;11.926;2023-02-13T13:53:08;9.00;99.90
16814;DHT22;8524;57.650;11.926;2023-02-13T13:55:58;8.90;99.90
16814;DHT22;8524;57.650;11.926;2023-02-13T13:58:33;9.00;99.90
16814;DHT22;8524;57.650;11.926;2023-02-13T14:01:22;8.90;99.90
16814;DHT22;8524;57.650;11.926;2023-02-13T14:03:51;8.80;99.90
16814;DHT22;8524;57.650;11.926;2023-02-13T14:06:21;8.70;99.90
16814;DHT22;8524;57.650;11.926;2023-02-13T14:09:01;8.70;99.90
16814;DHT22;8524;57.650;11.926;2023-02-13T14:11:39;8.70;99.90
16814;DHT22;8524;57.650;11.926;2023-02-13T14:20:35;8.50;99.90
16814;DHT22;8524;57.650;11.926;2023-02-13T14:23:16;8.50;99.90
16814;DHT22;8524;57.650;11.926;2023-02-13T14:25:45;8.60;99.90
16814;DHT22;8524;57.650;11.926;2023-02-13T14:28:21;8.60;99.90
16814;DHT22;8524;57.650;11.926;2023-02-13T14:30:50;8.50;99.90
16814;DHT22;8524;57.650;11.926;2023-02-13T14:33:24;8.50;99.90
16814;DHT22;8524;57.650;11.926;2023-02-13T14:35:59;8.40;99.90
16814;DHT22;8524;57.650;11.926;2023-02-13T14:38:29;8.40;99.90
16814;DHT22;8524;57.650;11.926;2023-02-13T14:40:56;8.40;99.90
16814;DHT22;8524;57.650;11.926;2023-02-13T14:43:49;8.30;99.90
16814;DHT22;8524;57.650;11.926;2023-02-13T14:46:23;8.30;99.90
16814;DHT22;8524;57.650;11.926;2023-02-13T14:48:56;8.30;99.90
16814;DHT22;8524;57.650;11.926;2023-02-13T14:51:32;8.20;99.90
16814;DHT22;8524;57.650;11.926;2023-02-13T14:54:05;8.10;99.90
16814;DHT22;8524;57.650;11.926;2023-02-13T14:56:32;8.10;99.90
16814;DHT22;8524;57.650;11.926;2023-02-13T14:59:09;7.90;99.90
16814;DHT22;8524;57.650;11.926;2023-02-13T15:01:43;7.90;99.90
16814;DHT22;8524;57.650;11.926;2023-02-13T15:04:16;7.80;99.90
16814;DHT22;8524;57.650;11.926;2023-02-13T15:06:45;7.80;99.90
16814;DHT22;8524;57.650;11.926;2023-02-13T15:09:31;7.80;99.90
16814;DHT22;8524;57.650;11.926;2023-02-13T15:11:59;7.80;99.90
16814;DHT22;8524;57.650;11.926;2023-02-13T15:14:31;7.80;99.90
16814;DHT22;8524;57.650;11.926;2023-02-13T15:17:03;7.70;99.90
16814;DHT22;8524;57.650;11.926;2023-02-13T15:19:32;7.60;99.90
16814;DHT22;8524;57.650;11.926;2023-02-13T15:22:01;7.50;99.90
16814;DHT22;8524;57.650;11.926;2023-02-13T15:24:36;7.40;99.90
16814;DHT22;8524;57.650;11.926;2023-02-13T15:27:05;7.40;99.90
16814;DHT22;8524;57.650;11.926;2023-02-13T15:29:33;7.30;99.90
16814;DHT22;8524;57.650;11.926;2023-02-13T15:32:00;7.30;99.90
16814;DHT22;8524;57.650;11.926;2023-02-13T15:34:45;7.30;99.90
16814;DHT22;8524;57.650;11.926;2023-02-13T15:37:20;7.20;99.90
16814;DHT22;8524;57.650;11.926;2023-02-13T15:39:48;7.10;99.90
16814;DHT22;8524;57.650;11.926;2023-02-13T15:42:15;7.10;99.90
16814;DHT22;8524;57.650;11.926;2023-02-13T15:44:45;7.00;99.90
16814;DHT22;8524;57.650;11.926;2023-02-13T15:47:19;7.10;99.90
16814;DHT22;8524;57.650;11.926;2023-02-13T15:49:48;7.00;99.90
16814;DHT22;8524;57.650;11.926;2023-02-13T15:52:19;6.90;99.90
16814;DHT22;8524;57.650;11.926;2023-02-13T15:54:50;6.90;99.90
16814;DHT22;8524;57.650;11.926;2023-02-13T15:57:19;6.90;99.90
16814;DHT22;8524;57.650;11.926;2023-02-13T15:59:48;6.70;99.90
16814;DHT22;8524;57.650;11.926;2023-02-13T16:02:18;6.70;99.90
16814;DHT22;8524;57.650;11.926;2023-02-13T16:04:50;6.70;99.90
16814;DHT22;8524;57.650;11.926;2023-02-13T16:07:18;6.70;99.90
16814;DHT22;8524;57.650;11.926;2023-02-13T16:09:45;6.60;99.90
16814;DHT22;8524;57.650;11.926;2023-02-13T16:12:19;6.70;99.90
16814;DHT22;8524;57.650;11.926;2023-02-13T16:14:50;6.60;99.90
16814;DHT22;8524;57.650;11.926;2023-02-13T16:17:25;6.60;99.90
16814;DHT22;8524;57.650;11.926;2023-02-13T16:19:56;6.50;99.90
16814;DHT22;8524;57.650;11.926;2023-02-13T16:22:29;6.50;99.90
16814;DHT22;8524;57.650;11.926;2023-02-13T16:25:13;6.40;99.90
16814;DHT22;8524;57.650;11.926;2023-02-13T16:27:44;6.40;99.90
16814;DHT22;8524;57.650;11.926;2023-02-13T16:30:24;6.40;99.90
16814;DHT22;8524;57.650;11.926;2023-02-13T16:33:17;6.30;99.90